Time;durP1;ratioP1;P1;durP2;ratioP2;P2;SDS_P1;SDS_P2;PMS_P1;PMS_P2;Temp;Humidity;BMP_temperature;BMP_pressure;BME280_temperature;BME280_humidity;BME280_pressure;Samples;Min_cycle;Max_cycle;Signal;HPM_P1;HPM_P2
2024/04/11 00:01:21;;;;;;;19.40;15.60;;;;;;;;;;5322815;26;20017;-49
2024/04/11 00:03:47;;;;;;;21.75;16.40;;;;;;;;;;5365645;26;20015;-50
2024/04/11 00:06:13;;;;;;;20.47;14.80;;;;;;;;;;5380030;26;19996;-49
2024/04/11 00:08:40;;;;;;;19.80;15.50;;;;;;;;;;5379626;26;20010;-49
2024/04/11 00:11:06;;;;;;;17.83;15.38;;;;;;;;;;5348749;26;20015;-48
2024/04/11 00:13:32;;;;;;;19.40;15.75;;;;;;;;;;5354416;26;20005;-48
2024/04/11 00:15:58;;;;;;;18.02;14.50;;;;;;;;;;5322375;26;20044;-49
2024/04/11 00:18:25;;;;;;;19.58;15.65;;;;;;;;;;5371957;26;20004;-49
2024/04/11 00:20:54;;;;;;;21.88;15.75;;;;;;;;;;5355248;26;20484;-50
2024/04/11 00:23:21;;;;;;;20.48;15.77;;;;;;;;;;5348944;26;20004;-49
2024/04/11 00:25:55;;;;;;;20.75;15.35;;;;;;;;;;5348555;26;20016;-51
2024/04/11 00:28:22;;;;;;;22.45;16.05;;;;;;;;;;5379880;26;20000;-50
2024/04/11 00:30:48;;;;;;;;;;;;;;;;;;5349554;26;19996;-49
2024/04/11 00:33:15;;;;;;;21.77;16.90;;;;;;;;;;5379092;26;19925;-49
2024/04/11 00:35:42;;;;;;;19.95;15.90;;;;;;;;;;5379621;26;20005;-50
2024/04/11 00:38:10;;;;;;;21.17;16.15;;;;;;;;;;5319425;26;20015;-50
2024/04/11 00:40:36;;;;;;;22.00;16.42;;;;;;;;;;5370530;26;20430;-49
2024/04/11 00:43:03;;;;;;;22.80;17.05;;;;;;;;;;5376282;26;20110;-48
2024/04/11 00:45:30;;;;;;;21.40;16.88;;;;;;;;;;5360180;26;20356;-49
2024/04/11 00:47:57;;;;;;;22.75;18.38;;;;;;;;;;5329028;26;20353;-49
2024/04/11 00:50:23;;;;;;;24.55;18.98;;;;;;;;;;5348091;26;19997;-49
2024/04/11 00:52:49;;;;;;;24.63;19.15;;;;;;;;;;5344911;26;19996;-49
2024/04/11 00:55:15;;;;;;;20.37;16.90;;;;;;;;;;5378724;26;20019;-49
2024/04/11 00:57:42;;;;;;;22.42;17.95;;;;;;;;;;5333945;26;20234;-49
2024/04/11 01:00:11;;;;;;;22.13;17.58;;;;;;;;;;5383141;26;19996;-49
2024/04/11 01:02:38;;;;;;;20.63;16.73;;;;;;;;;;5364331;26;20012;-48
2024/04/11 01:05:04;;;;;;;21.90;16.23;;;;;;;;;;5380228;26;20468;-50
2024/04/11 01:07:32;;;;;;;24.15;17.85;;;;;;;;;;5351583;26;20007;-50
2024/04/11 01:09:58;;;;;;;24.90;17.48;;;;;;;;;;5320068;26;20005;-52
2024/04/11 01:12:25;;;;;;;24.00;17.55;;;;;;;;;;5364267;26;20032;-49
2024/04/11 01:14:52;;;;;;;22.85;17.95;;;;;;;;;;5380566;26;20007;-48
2024/04/11 01:17:20;;;;;;;21.80;17.17;;;;;;;;;;5382185;26;20000;-48
2024/04/11 01:19:49;;;;;;;23.33;18.00;;;;;;;;;;5335210;26;20001;-49
2024/04/11 01:22:18;;;;;;;22.63;17.23;;;;;;;;;;5338175;26;20081;-48
2024/04/11 01:24:44;;;;;;;23.83;17.55;;;;;;;;;;5378141;26;20000;-49
2024/04/11 01:27:14;;;;;;;25.27;17.08;;;;;;;;;;5332277;26;20421;-49
2024/04/11 01:29:41;;;;;;;30.30;17.30;;;;;;;;;;5365828;26;20004;-48
2024/04/11 01:32:08;;;;;;;21.70;17.02;;;;;;;;;;5351577;26;20073;-49
2024/04/11 01:34:34;;;;;;;22.77;17.27;;;;;;;;;;5353165;26;20373;-48
2024/04/11 01:37:00;;;;;;;22.45;16.25;;;;;;;;;;5352212;26;20012;-50
2024/04/11 01:39:27;;;;;;;22.90;16.23;;;;;;;;;;5318370;26;20001;-48
2024/04/11 01:41:53;;;;;;;21.20;16.75;;;;;;;;;;5347093;26;20005;-48
2024/04/11 01:44:20;;;;;;;22.20;15.97;;;;;;;;;;5371411;26;20004;-49
2024/04/11 01:46:46;;;;;;;22.42;15.95;;;;;;;;;;5349847;26;20000;-48
2024/04/11 01:49:13;;;;;;;19.75;15.85;;;;;;;;;;5350740;26;20000;-48
2024/04/11 01:51:41;;;;;;;20.75;15.10;;;;;;;;;;5342575;26;20020;-49
2024/04/11 01:54:07;;;;;;;19.85;15.18;;;;;;;;;;5367838;26;20080;-49
2024/04/11 01:56:34;;;;;;;22.07;15.83;;;;;;;;;;5381111;26;20000;-49
2024/04/11 01:59:10;;;;;;;24.75;17.48;;;;;;;;;;5374896;26;20367;-49
2024/04/11 02:01:40;;;;;;;19.17;14.35;;;;;;;;;;5381644;26;20015;-49
2024/04/11 02:04:06;;;;;;;19.08;14.32;;;;;;;;;;5381650;26;20000;-50
2024/04/11 02:06:35;;;;;;;16.43;13.50;;;;;;;;;;5350565;26;20290;-49
2024/04/11 02:09:15;;;;;;;16.05;13.60;;;;;;;;;;5322104;26;20039;-49
2024/04/11 02:11:46;;;;;;;17.27;13.65;;;;;;;;;;5380403;26;20000;-49
2024/04/11 02:14:13;;;;;;;16.10;12.82;;;;;;;;;;5381732;26;20435;-49
2024/04/11 02:16:39;;;;;;;20.50;13.60;;;;;;;;;;5321515;26;20099;-49
2024/04/11 02:19:06;;;;;;;16.08;11.55;;;;;;;;;;5381480;26;20015;-49
2024/04/11 02:21:32;;;;;;;;;;;;;;;;;;5322304;26;20000;-49
2024/04/11 02:23:59;;;;;;;17.42;12.25;;;;;;;;;;5321033;26;20372;-49
2024/04/11 02:26:25;;;;;;;15.73;12.32;;;;;;;;;;5381214;26;20000;-49
2024/04/11 02:28:54;;;;;;;16.23;12.50;;;;;;;;;;5381369;26;20000;-49
2024/04/11 02:31:21;;;;;;;17.95;12.57;;;;;;;;;;5350154;26;20004;-49
2024/04/11 02:33:47;;;;;;;16.23;12.05;;;;;;;;;;5381639;26;20344;-48
2024/04/11 02:36:13;;;;;;;19.58;13.60;;;;;;;;;;5381411;26;20362;-49
2024/04/11 02:38:40;;;;;;;17.40;13.32;;;;;;;;;;5381468;26;20608;-49
2024/04/11 02:41:07;;;;;;;16.50;13.53;;;;;;;;;;5350269;26;20000;-51
2024/04/11 02:43:39;;;;;;;17.73;12.55;;;;;;;;;;5381399;26;19996;-49
2024/04/11 02:46:15;;;;;;;18.40;12.82;;;;;;;;;;5381302;26;20007;-49
2024/04/11 02:48:44;;;;;;;18.23;13.05;;;;;;;;;;5322674;26;20015;-48
2024/04/11 02:51:13;;;;;;;15.95;13.23;;;;;;;;;;5380323;26;20011;-49
2024/04/11 02:53:39;;;;;;;18.40;12.48;;;;;;;;;;5379893;26;20011;-49
2024/04/11 02:56:09;;;;;;;16.42;13.25;;;;;;;;;;5379781;26;20012;-49
2024/04/11 02:58:38;;;;;;;19.95;13.73;;;;;;;;;;5381147;26;20156;-48
2024/04/11 03:01:09;;;;;;;20.75;12.65;;;;;;;;;;5380793;26;20024;-49
2024/04/11 03:03:37;;;;;;;20.50;13.25;;;;;;;;;;5380870;26;20069;-49
2024/04/11 03:06:17;;;;;;;16.95;13.05;;;;;;;;;;5380675;26;20364;-49
2024/04/11 03:08:44;;;;;;;17.77;12.38;;;;;;;;;;5381080;26;19992;-49
2024/04/11 03:11:10;;;;;;;16.08;12.45;;;;;;;;;;5348499;26;19992;-48
2024/04/11 03:13:37;;;;;;;17.25;13.60;;;;;;;;;;5380027;26;19996;-49
2024/04/11 03:16:04;;;;;;;21.52;14.48;;;;;;;;;;5380993;26;20066;-49
2024/04/11 03:18:34;;;;;;;20.63;14.73;;;;;;;;;;5380820;26;20368;-49
2024/04/11 03:21:00;;;;;;;23.95;14.98;;;;;;;;;;5380423;26;20019;-48
2024/04/11 03:23:27;;;;;;;20.98;15.80;;;;;;;;;;5380775;26;20000;-48
2024/04/11 03:25:54;;;;;;;18.77;14.13;;;;;;;;;;5349881;26;19996;-49
2024/04/11 03:28:20;;;;;;;25.13;15.18;;;;;;;;;;5380797;26;20004;-48
2024/04/11 03:31:04;;;;;;;19.95;14.45;;;;;;;;;;5380130;26;20004;-48
2024/04/11 03:33:31;;;;;;;22.00;15.05;;;;;;;;;;5380686;26;20012;-48
2024/04/11 03:35:57;;;;;;;18.95;14.93;;;;;;;;;;5380578;26;20004;-50
2024/04/11 03:38:28;;;;;;;16.80;13.23;;;;;;;;;;5320852;26;20008;-49
2024/04/11 03:40:56;;;;;;;22.42;14.85;;;;;;;;;;5379987;26;20000;-49
2024/04/11 03:43:22;;;;;;;22.90;14.88;;;;;;;;;;5380488;26;20000;-49
2024/04/11 03:45:49;;;;;;;19.27;14.13;;;;;;;;;;5349670;26;20526;-48
2024/04/11 03:48:15;;;;;;;17.65;14.13;;;;;;;;;;5380526;26;20000;-48
2024/04/11 03:50:42;;;;;;;20.08;13.90;;;;;;;;;;5348775;26;20487;-52
2024/04/11 03:53:08;;;;;;;28.33;14.98;;;;;;;;;;5380106;26;20051;-50
2024/04/11 03:55:42;;;;;;;15.77;13.25;;;;;;;;;;5349678;26;20024;-45
2024/04/11 03:58:09;;;;;;;19.45;14.43;;;;;;;;;;5349454;26;20000;-50
2024/04/11 04:00:35;;;;;;;19.75;14.73;;;;;;;;;;5379419;26;20468;-51
2024/04/11 04:03:01;;;;;;;21.05;13.38;;;;;;;;;;5380033;26;20008;-53
2024/04/11 04:05:28;;;;;;;17.73;13.27;;;;;;;;;;5349086;26;20019;-49
2024/04/11 04:07:54;;;;;;;17.98;14.23;;;;;;;;;;5380186;26;20000;-51
2024/04/11 04:10:23;;;;;;;19.52;14.43;;;;;;;;;;5348950;26;20031;-51
2024/04/11 04:12:53;;;;;;;20.08;14.52;;;;;;;;;;5349417;26;20000;-51
2024/04/11 04:15:19;;;;;;;18.02;13.80;;;;;;;;;;5380212;26;20011;-54
2024/04/11 04:17:46;;;;;;;18.92;13.30;;;;;;;;;;5379942;26;20008;-50
2024/04/11 04:20:13;;;;;;;26.55;13.55;;;;;;;;;;5348985;26;20028;-51
2024/04/11 04:22:39;;;;;;;18.70;13.05;;;;;;;;;;5380097;26;20003;-52
2024/04/11 04:25:08;;;;;;;21.15;14.85;;;;;;;;;;5380146;26;20012;-50
2024/04/11 04:27:34;;;;;;;17.08;12.73;;;;;;;;;;5379696;26;19996;-49
2024/04/11 04:30:00;;;;;;;23.13;14.88;;;;;;;;;;5379712;26;20320;-52
2024/04/11 04:32:26;;;;;;;24.00;15.57;;;;;;;;;;5379769;26;20011;-49
2024/04/11 04:34:54;;;;;;;20.83;15.07;;;;;;;;;;5379658;26;20511;-49
2024/04/11 04:37:20;;;;;;;19.92;14.52;;;;;;;;;;5379592;26;20007;-50
2024/04/11 04:39:46;;;;;;;24.10;17.17;;;;;;;;;;5319481;26;20011;-49
2024/04/11 04:42:13;;;;;;;24.47;14.63;;;;;;;;;;5366140;21;20480;-58
2024/04/11 04:44:40;;;;;;;27.48;15.95;;;;;;;;;;5342981;26;20029;-57
2024/04/11 04:47:16;;;;;;;;;;;;;;;;;;5345501;26;20703;-62
2024/04/11 04:49:45;;;;;;;25.58;15.65;;;;;;;;;;5344600;26;19926;-56
2024/04/11 04:52:13;;;;;;;25.38;17.08;;;;;;;;;;5344818;26;20467;-54
2024/04/11 04:54:39;;;;;;;32.30;17.67;;;;;;;;;;5344332;26;20004;-58
2024/04/11 04:57:06;;;;;;;27.58;16.42;;;;;;;;;;5344471;26;20005;-56
2024/04/11 04:59:32;;;;;;;24.63;16.60;;;;;;;;;;5344399;26;19997;-60
2024/04/11 05:01:58;;;;;;;21.77;15.95;;;;;;;;;;5344107;26;19997;-59
2024/04/11 05:04:25;;;;;;;24.20;15.57;;;;;;;;;;5344347;26;20028;-59
2024/04/11 05:06:52;;;;;;;23.30;15.52;;;;;;;;;;5344273;26;20029;-60
2024/04/11 05:09:18;;;;;;;25.85;16.67;;;;;;;;;;5342931;26;20075;-59
2024/04/11 05:11:44;;;;;;;23.27;16.60;;;;;;;;;;5343648;26;19997;-59
2024/04/11 05:14:10;;;;;;;22.02;15.50;;;;;;;;;;5344095;26;20001;-56
2024/04/11 05:16:38;;;;;;;21.40;15.27;;;;;;;;;;5314109;26;20001;-57
2024/04/11 05:19:04;;;;;;;22.10;15.65;;;;;;;;;;5343900;26;20012;-58
2024/04/11 05:21:32;;;;;;;20.13;14.32;;;;;;;;;;5342149;26;20478;-56
2024/04/11 05:23:59;;;;;;;25.48;16.25;;;;;;;;;;5341910;26;20012;-57
2024/04/11 05:26:25;;;;;;;23.57;14.67;;;;;;;;;;5344019;26;20500;-58
2024/04/11 05:28:52;;;;;;;26.20;16.40;;;;;;;;;;5342324;26;20012;-56
2024/04/11 05:31:23;;;;;;;20.88;14.05;;;;;;;;;;5341741;26;20015;-58
2024/04/11 05:33:53;;;;;;;22.75;14.82;;;;;;;;;;5343721;26;20005;-60
2024/04/11 05:36:24;;;;;;;21.42;14.77;;;;;;;;;;5347182;26;20475;-60
2024/04/11 05:38:51;;;;;;;22.73;14.93;;;;;;;;;;5347497;26;20067;-58
2024/04/11 05:41:18;;;;;;;22.33;15.77;;;;;;;;;;5346761;26;20001;-58
2024/04/11 05:43:44;;;;;;;22.53;14.80;;;;;;;;;;5345821;26;20013;-60
2024/04/11 05:46:19;;;;;;;22.17;15.13;;;;;;;;;;5347207;26;20333;-57
2024/04/11 05:48:49;;;;;;;22.85;14.85;;;;;;;;;;5347264;26;20077;-59
2024/04/11 05:51:16;;;;;;;24.30;14.98;;;;;;;;;;5345015;26;19993;-58
2024/04/11 05:53:42;;;;;;;22.02;14.60;;;;;;;;;;5345396;26;20008;-57
2024/04/11 05:56:09;;;;;;;22.95;15.25;;;;;;;;;;5347526;26;20009;-58
2024/04/11 05:58:38;;;;;;;23.15;15.20;;;;;;;;;;5347049;26;20465;-60
2024/04/11 06:01:13;;;;;;;21.45;15.40;;;;;;;;;;5347154;26;19997;-58
2024/04/11 06:03:40;;;;;;;24.13;15.05;;;;;;;;;;5347200;26;20020;-60
2024/04/11 06:06:08;;;;;;;28.13;16.80;;;;;;;;;;5346743;26;20005;-57
2024/04/11 06:08:34;;;;;;;23.40;15.82;;;;;;;;;;5345048;26;20082;-57
2024/04/11 06:11:00;;;;;;;26.42;16.48;;;;;;;;;;5344941;26;20005;-57
2024/04/11 06:13:27;;;;;;;24.10;16.40;;;;;;;;;;5347165;26;20001;-56
2024/04/11 06:15:54;;;;;;;25.65;16.27;;;;;;;;;;5346950;26;19997;-57
2024/04/11 06:18:24;;;;;;;25.85;17.15;;;;;;;;;;5346972;26;20052;-57
2024/04/11 06:20:50;;;;;;;24.75;15.55;;;;;;;;;;5346808;26;20505;-58
2024/04/11 06:23:16;;;;;;;20.38;15.02;;;;;;;;;;5346928;26;20001;-58
2024/04/11 06:25:44;;;;;;;24.27;15.95;;;;;;;;;;5346795;26;19997;-56
2024/04/11 06:28:14;;;;;;;25.20;15.90;;;;;;;;;;5346468;26;20001;-59
2024/04/11 06:30:43;;;;;;;20.13;15.55;;;;;;;;;;5346041;26;20000;-58
2024/04/11 06:33:10;;;;;;;17.98;13.65;;;;;;;;;;5346408;26;20356;-56
2024/04/11 06:35:36;;;;;;;19.90;13.10;;;;;;;;;;5345132;26;20013;-60
2024/04/11 06:38:07;;;;;;;18.63;14.02;;;;;;;;;;5346616;26;20012;-59
2024/04/11 06:40:33;;;;;;;19.23;13.02;;;;;;;;;;5346236;26;20333;-57
2024/04/11 06:43:01;;;;;;;17.87;13.40;;;;;;;;;;5346752;26;20012;-57
2024/04/11 06:45:30;;;;;;;19.02;13.43;;;;;;;;;;5345705;26;20011;-57
2024/04/11 06:47:59;;;;;;;17.38;13.23;;;;;;;;;;5346595;26;19997;-57
2024/04/11 06:50:25;;;;;;;18.40;12.95;;;;;;;;;;5344236;26;20009;-58
2024/04/11 06:52:51;;;;;;;15.02;12.88;;;;;;;;;;5346240;26;20469;-59
2024/04/11 06:55:19;;;;;;;15.93;12.80;;;;;;;;;;5346220;26;20011;-58
2024/04/11 06:57:45;;;;;;;18.88;13.57;;;;;;;;;;5346415;26;20001;-60
2024/04/11 07:00:21;;;;;;;17.83;12.18;;;;;;;;;;5345989;26;20012;-55
2024/04/11 07:02:51;;;;;;;13.85;11.48;;;;;;;;;;5344671;26;20000;-55
2024/04/11 07:05:20;;;;;;;16.92;10.90;;;;;;;;;;5346186;26;20011;-60
2024/04/11 07:07:54;;;;;;;15.30;11.88;;;;;;;;;;5344332;26;20036;-59
2024/04/11 07:10:32;;;;;;;15.40;11.52;;;;;;;;;;5345810;26;19993;-58
2024/04/11 07:12:59;;;;;;;15.30;12.23;;;;;;;;;;5346277;26;20457;-59
2024/04/11 07:15:29;;;;;;;16.60;12.60;;;;;;;;;;5346040;26;20011;-58
2024/04/11 07:17:58;;;;;;;16.67;12.93;;;;;;;;;;5346228;26;20012;-56
2024/04/11 07:20:31;;;;;;;21.00;11.65;;;;;;;;;;5345391;26;20479;-55
2024/04/11 07:23:04;;;;;;;16.17;12.32;;;;;;;;;;5345699;26;20337;-59
2024/04/11 07:25:32;;;;;;;14.15;11.40;;;;;;;;;;5345828;26;20001;-58
2024/04/11 07:28:00;;;;;;;14.57;12.35;;;;;;;;;;5346261;26;20074;-57
2024/04/11 07:30:29;;;;;;;18.17;12.52;;;;;;;;;;5343648;26;20380;-56
2024/04/11 07:32:56;;;;;;;15.52;12.05;;;;;;;;;;5343874;26;20070;-57
2024/04/11 07:35:26;;;;;;;15.48;11.30;;;;;;;;;;5346048;26;20543;-59
2024/04/11 07:37:53;;;;;;;14.70;11.02;;;;;;;;;;5344145;26;19997;-59
2024/04/11 07:40:32;;;;;;;;;;;;;;;;;;5345756;26;20009;-60
2024/04/11 07:43:09;;;;;;;13.38;10.32;;;;;;;;;;5345869;26;20325;-61
2024/04/11 07:45:41;;;;;;;12.63;10.30;;;;;;;;;;5345661;26;20070;-59
2024/04/11 07:48:09;;;;;;;17.48;11.15;;;;;;;;;;5345347;26;19997;-60
2024/04/11 07:50:35;;;;;;;;;;;;;;;;;;5345983;26;20012;-60
2024/04/11 07:53:02;;;;;;;13.80;9.77;;;;;;;;;;5343589;26;19930;-61
2024/04/11 07:55:29;;;;;;;15.43;10.32;;;;;;;;;;5345180;26;20008;-61
2024/04/11 07:57:58;;;;;;;13.02;10.27;;;;;;;;;;5343075;26;20001;-59
2024/04/11 08:00:27;;;;;;;15.73;10.65;;;;;;;;;;5343035;26;20033;-61
2024/04/11 08:02:56;;;;;;;11.30;9.57;;;;;;;;;;5345595;26;20004;-60
2024/04/11 08:05:24;;;;;;;14.85;9.40;;;;;;;;;;5345586;26;20005;-61
2024/04/11 08:07:51;;;;;;;11.38;8.30;;;;;;;;;;5345263;26;20001;-61
2024/04/11 08:10:20;;;;;;;12.07;8.50;;;;;;;;;;5343385;26;19996;-61
2024/04/11 08:12:49;;;;;;;13.75;8.98;;;;;;;;;;5345267;26;20001;-61
2024/04/11 08:15:15;;;;;;;11.20;8.73;;;;;;;;;;5343526;26;20070;-59
2024/04/11 08:17:42;;;;;;;9.38;7.75;;;;;;;;;;5345345;26;20079;-60
2024/04/11 08:20:14;;;;;;;9.80;7.90;;;;;;;;;;5344989;26;20001;-59
2024/04/11 08:22:43;;;;;;;11.80;8.35;;;;;;;;;;5345726;26;20001;-62
2024/04/11 08:25:12;;;;;;;11.65;8.55;;;;;;;;;;5344979;26;20012;-58
2024/04/11 08:27:42;;;;;;;16.85;9.43;;;;;;;;;;5344821;26;20007;-59
2024/04/11 08:30:11;;;;;;;10.65;8.77;;;;;;;;;;5343183;26;19997;-61
2024/04/11 08:32:45;;;;;;;13.15;9.52;;;;;;;;;;5344841;26;20009;-59
2024/04/11 08:35:12;;;;;;;13.00;7.45;;;;;;;;;;5345462;26;20008;-58
2024/04/11 08:37:39;;;;;;;9.25;7.03;;;;;;;;;;5343045;26;20001;-61
2024/04/11 08:40:10;;;;;;;8.43;6.72;;;;;;;;;;5344247;26;20012;-61
2024/04/11 08:42:38;;;;;;;10.55;7.38;;;;;;;;;;5343329;26;20011;-59
2024/04/11 08:45:08;;;;;;;7.93;6.63;;;;;;;;;;5342728;26;20007;-60
2024/04/11 08:47:35;;;;;;;7.82;6.00;;;;;;;;;;5343250;26;20008;-61
2024/04/11 08:50:02;;;;;;;8.13;6.40;;;;;;;;;;5344190;26;19997;-62
2024/04/11 08:52:31;;;;;;;11.15;7.93;;;;;;;;;;5342870;26;19997;-62
2024/04/11 08:54:58;;;;;;;8.68;6.30;;;;;;;;;;5314113;26;20019;-61
2024/04/11 08:57:27;;;;;;;10.50;6.43;;;;;;;;;;5342697;26;20008;-61
2024/04/11 08:59:54;;;;;;;8.27;6.38;;;;;;;;;;5342436;26;20000;-62
2024/04/11 09:02:20;;;;;;;;;;;;;;;;;;5345103;26;20326;-60
2024/04/11 09:04:47;;;;;;;8.27;5.90;;;;;;;;;;5313962;26;19937;-59
2024/04/11 09:07:21;;;;;;;11.13;6.53;;;;;;;;;;5344967;26;20306;-62
2024/04/11 09:09:48;;;;;;;10.32;5.93;;;;;;;;;;5347610;26;20353;-60
2024/04/11 09:12:16;;;;;;;;;;;;;;;;;;5348327;26;20008;-58
2024/04/11 09:14:43;;;;;;;9.38;6.78;;;;;;;;;;5347625;26;20413;-59
2024/04/11 09:17:13;;;;;;;;;;;;;;;;;;5348423;26;20012;-60
2024/04/11 09:19:45;;;;;;;6.57;5.30;;;;;;;;;;5345798;26;19996;-61
2024/04/11 09:22:14;;;;;;;9.60;6.05;;;;;;;;;;5347863;26;20008;-61
2024/04/11 09:24:44;;;;;;;13.02;6.85;;;;;;;;;;5345956;26;20008;-57
2024/04/11 09:27:16;;;;;;;8.63;6.55;;;;;;;;;;5316659;26;20000;-58
2024/04/11 09:29:43;;;;;;;8.55;5.55;;;;;;;;;;5345623;26;20016;-60
2024/04/11 09:32:21;;;;;;;7.07;5.78;;;;;;;;;;5345328;26;20006;-61
2024/04/11 09:34:47;;;;;;;11.30;5.78;;;;;;;;;;5347623;26;19997;-59
2024/04/11 09:37:16;;;;;;;6.78;6.05;;;;;;;;;;5347280;26;20044;-61
2024/04/11 09:39:48;;;;;;;7.90;4.80;;;;;;;;;;5346862;26;20438;-58
2024/04/11 09:42:25;;;;;;;11.02;6.18;;;;;;;;;;5345328;26;20370;-61
2024/04/11 09:44:52;;;;;;;7.50;6.07;;;;;;;;;;5345733;26;20361;-61
2024/04/11 09:47:34;;;;;;;8.93;6.07;;;;;;;;;;5345606;26;20067;-61
2024/04/11 09:50:04;;;;;;;10.43;6.18;;;;;;;;;;5345437;26;20015;-62
2024/04/11 09:52:34;;;;;;;8.95;6.25;;;;;;;;;;5345547;26;20001;-58
2024/04/11 09:55:03;;;;;;;11.35;7.47;;;;;;;;;;5346862;26;20416;-61
2024/04/11 09:57:30;;;;;;;12.55;6.30;;;;;;;;;;5347095;26;20346;-61
2024/04/11 09:59:57;;;;;;;7.40;6.60;;;;;;;;;;5346798;26;20074;-62
2024/04/11 10:02:24;;;;;;;8.75;7.05;;;;;;;;;;5347199;26;20001;-60
2024/04/11 10:04:57;;;;;;;8.65;6.85;;;;;;;;;;5347105;26;20074;-62
2024/04/11 10:07:26;;;;;;;8.35;6.03;;;;;;;;;;5346707;26;19993;-61
2024/04/11 10:09:53;;;;;;;10.60;6.10;;;;;;;;;;5346814;26;20000;-62
2024/04/11 10:12:19;;;;;;;17.60;5.80;;;;;;;;;;5345316;26;20001;-60
2024/04/11 10:14:59;;;;;;;9.05;6.10;;;;;;;;;;5346831;26;19997;-60
2024/04/11 10:17:29;;;;;;;7.35;6.07;;;;;;;;;;5358522;26;20000;-60
2024/04/11 10:19:59;;;;;;;7.70;6.13;;;;;;;;;;5380874;26;19992;-60
2024/04/11 10:22:26;;;;;;;8.52;5.50;;;;;;;;;;5357010;26;20000;-61
2024/04/11 10:25:06;;;;;;;6.93;5.50;;;;;;;;;;5346230;26;20004;-61
2024/04/11 10:27:34;;;;;;;8.60;5.70;;;;;;;;;;5337469;26;20007;-62
2024/04/11 10:30:05;;;;;;;9.38;6.18;;;;;;;;;;5343178;26;20051;-62
2024/04/11 10:32:39;;;;;;;6.72;5.18;;;;;;;;;;5344128;26;20005;-61
2024/04/11 10:35:07;;;;;;;8.43;5.25;;;;;;;;;;5349590;26;20007;-61
2024/04/11 10:37:39;;;;;;;7.85;5.75;;;;;;;;;;5378594;26;19996;-62
2024/04/11 10:40:09;;;;;;;5.32;4.72;;;;;;;;;;5374447;26;20014;-61
2024/04/11 10:42:36;;;;;;;7.45;5.03;;;;;;;;;;5369871;21;20053;-49
2024/04/11 10:45:17;;;;;;;6.35;4.90;;;;;;;;;;5346373;26;20527;-51
2024/04/11 10:47:44;;;;;;;8.05;5.30;;;;;;;;;;5359376;26;20004;-49
2024/04/11 10:50:10;;;;;;;;;;;;;;;;;;5377562;26;20353;-49
2024/04/11 10:52:40;;;;;;;7.82;5.80;;;;;;;;;;5347364;26;19933;-49
2024/04/11 10:55:12;;;;;;;7.40;5.68;;;;;;;;;;5355136;26;19996;-49
2024/04/11 10:57:45;;;;;;;7.60;6.18;;;;;;;;;;5349161;26;20078;-49
2024/04/11 11:00:11;;;;;;;8.95;6.07;;;;;;;;;;5335912;26;20052;-50
2024/04/11 11:02:42;;;;;;;8.35;4.93;;;;;;;;;;5359172;26;20004;-49
2024/04/11 11:05:08;;;;;;;7.90;5.80;;;;;;;;;;5323621;26;20364;-49
2024/04/11 11:07:35;;;;;;;6.28;5.03;;;;;;;;;;5372835;26;20008;-49
2024/04/11 11:10:11;;;;;;;7.70;5.53;;;;;;;;;;5352370;26;20032;-49
2024/04/11 11:12:37;;;;;;;8.13;5.40;;;;;;;;;;5365229;26;20081;-49
2024/04/11 11:15:04;;;;;;;11.73;5.35;;;;;;;;;;5379115;26;19996;-50
2024/04/11 11:17:31;;;;;;;7.43;4.82;;;;;;;;;;5358448;26;20016;-49
2024/04/11 11:19:58;;;;;;;;;;;;;;;;;;5354984;26;20636;-50
2024/04/11 11:22:33;;;;;;;5.03;3.80;;;;;;;;;;5373076;26;20014;-48
2024/04/11 11:25:00;;;;;;;7.30;4.60;;;;;;;;;;5374915;26;20000;-49
2024/04/11 11:27:33;;;;;;;7.30;4.10;;;;;;;;;;5376491;26;20000;-49
2024/04/11 11:29:59;;;;;;;6.45;4.55;;;;;;;;;;5375368;26;20394;-49
2024/04/11 11:32:26;;;;;;;8.40;5.03;;;;;;;;;;5343434;26;20088;-49
2024/04/11 11:34:52;;;;;;;8.18;4.93;;;;;;;;;;5358835;26;20004;-49
2024/04/11 11:37:21;;;;;;;5.03;3.95;;;;;;;;;;5355264;26;20013;-48
2024/04/11 11:39:55;;;;;;;8.00;4.93;;;;;;;;;;5343475;26;20028;-48
2024/04/11 11:42:28;;;;;;;6.82;4.38;;;;;;;;;;5343807;26;19997;-49
2024/04/11 11:47:34;;;;;;;7.28;5.05;;;;;;;;;;5373342;26;20001;-49
2024/04/11 11:50:19;;;;;;;8.70;4.85;;;;;;;;;;5348494;26;20000;-49
2024/04/11 11:52:49;;;;;;;7.88;5.25;;;;;;;;;;5356157;26;19997;-50
2024/04/11 11:55:18;;;;;;;5.45;4.90;;;;;;;;;;5344066;26;20008;-49
2024/04/11 11:57:47;;;;;;;9.63;5.20;;;;;;;;;;5343774;26;20399;-52
2024/04/11 12:00:21;;;;;;;9.23;5.13;;;;;;;;;;5370651;26;20533;-49
2024/04/11 12:02:50;;;;;;;8.13;5.38;;;;;;;;;;5343782;26;20001;-49
2024/04/11 12:05:26;;;;;;;8.77;5.32;;;;;;;;;;5345772;26;20012;-49
2024/04/11 12:07:58;;;;;;;7.43;5.03;;;;;;;;;;5343792;26;20543;-52
2024/04/11 12:10:35;;;;;;;10.93;5.30;;;;;;;;;;5345196;26;20015;-49
2024/04/11 12:15:57;;;;;;;7.85;5.05;;;;;;;;;;5372448;26;20007;-49
2024/04/11 12:18:24;;;;;;;6.88;4.88;;;;;;;;;;5378160;26;20007;-49
2024/04/11 12:20:57;;;;;;;7.78;4.30;;;;;;;;;;5377888;26;19992;-50
2024/04/11 12:23:30;;;;;;;6.00;4.95;;;;;;;;;;5341949;26;20004;-49
2024/04/11 12:25:57;;;;;;;7.45;4.60;;;;;;;;;;5352357;26;20005;-49
2024/04/11 12:28:25;;;;;;;7.60;5.13;;;;;;;;;;5356225;26;20004;-49
2024/04/11 12:31:01;;;;;;;6.60;5.10;;;;;;;;;;5363430;26;20001;-49
2024/04/11 12:33:27;;;;;;;8.68;5.90;;;;;;;;;;5343029;26;20005;-50
2024/04/11 12:35:58;;;;;;;10.13;5.38;;;;;;;;;;5345420;26;20070;-50
2024/04/11 12:38:27;;;;;;;5.60;5.00;;;;;;;;;;5312946;26;20403;-50
2024/04/11 12:40:53;;;;;;;7.50;5.25;;;;;;;;;;5357592;26;20004;-51
2024/04/11 12:43:19;;;;;;;8.07;5.00;;;;;;;;;;5351388;26;20036;-49
2024/04/11 12:45:52;;;;;;;9.68;5.30;;;;;;;;;;5351463;26;20287;-50
2024/04/11 12:48:22;;;;;;;7.18;4.93;;;;;;;;;;5377112;26;19996;-49
2024/04/11 12:50:52;;;;;;;7.97;4.25;;;;;;;;;;5346389;26;20403;-49
2024/04/11 12:53:21;;;;;;;5.60;4.55;;;;;;;;;;5347216;26;20001;-50
2024/04/11 12:55:55;;;;;;;10.77;4.07;;;;;;;;;;5346642;26;20001;-51
2024/04/11 12:58:25;;;;;;;7.57;4.40;;;;;;;;;;5357931;26;20014;-51
2024/04/11 13:01:02;;;;;;;8.27;4.95;;;;;;;;;;5377762;26;20003;-49
2024/04/11 13:06:27;;;;;;;9.43;5.43;;;;;;;;;;5361494;26;20000;-50
2024/04/11 13:09:17;;;;;;;6.40;4.40;;;;;;;;;;5353324;26;20517;-49
2024/04/11 13:11:48;;;;;;;14.98;5.82;;;;;;;;;;5371129;26;20086;-51
2024/04/11 13:14:18;;;;;;;10.68;5.63;;;;;;;;;;5381990;26;20333;-49
2024/04/11 13:16:50;;;;;;;18.73;5.85;;;;;;;;;;5382680;26;20004;-50
2024/04/11 13:19:19;;;;;;;6.30;5.13;;;;;;;;;;5379675;26;20012;-50
2024/04/11 13:22:04;;;;;;;5.55;4.72;;;;;;;;;;5357309;26;20074;-51
2024/04/11 13:24:59;;;;;;;9.98;4.35;;;;;;;;;;5368974;26;20345;-49
2024/04/11 13:27:28;;;;;;;9.00;4.10;;;;;;;;;;5353263;26;20075;-51
2024/04/11 13:29:59;;;;;;;7.30;4.05;;;;;;;;;;5370802;26;20476;-50
2024/04/11 13:32:30;;;;;;;5.85;4.68;;;;;;;;;;5381914;26;20040;-49
2024/04/11 13:35:07;;;;;;;7.97;5.07;;;;;;;;;;5372308;26;20001;-51
2024/04/11 13:37:41;;;;;;;;;;;;;;;;;;5351879;26;20037;-49
2024/04/11 13:43:09;;;;;;;6.90;4.90;;;;;;;;;;5337967;26;20032;-50
2024/04/11 13:45:41;;;;;;;9.38;5.18;;;;;;;;;;5368503;26;20015;-50
2024/04/11 13:48:10;;;;;;;5.63;3.97;;;;;;;;;;5362597;26;20024;-50
2024/04/11 13:50:43;;;;;;;5.88;4.85;;;;;;;;;;5381390;26;20004;-50
2024/04/11 13:53:14;;;;;;;16.08;4.82;;;;;;;;;;5359792;26;20015;-49
2024/04/11 13:55:43;;;;;;;9.57;4.93;;;;;;;;;;5375469;26;20020;-50
2024/04/11 13:58:10;;;;;;;5.00;4.45;;;;;;;;;;5363743;26;20004;-50
2024/04/11 14:00:38;;;;;;;7.68;4.70;;;;;;;;;;5378758;26;20573;-49
2024/04/11 14:03:23;;;;;;;9.43;4.47;;;;;;;;;;5352427;26;20519;-49
2024/04/11 14:08:54;;;;;;;7.00;4.30;;;;;;;;;;5351431;26;20014;-50
2024/04/11 14:11:29;;;;;;;6.47;4.03;;;;;;;;;;5343720;26;19997;-51
2024/04/11 14:13:56;;;;;;;7.65;4.40;;;;;;;;;;5344993;26;20023;-49
2024/04/11 14:19:51;;;;;;;4.85;4.35;;;;;;;;;;5343276;26;20069;-47
2024/04/11 14:25:16;;;;;;;6.28;4.30;;;;;;;;;;5361453;26;20004;-49
2024/04/11 14:27:43;;;;;;;5.38;3.90;;;;;;;;;;5370090;26;20048;-50
2024/04/11 14:30:09;;;;;;;;;;;;;;;;;;5344069;26;20019;-50
2024/04/11 14:37:56;;;;;;;6.10;5.00;;;;;;;;;;5344976;26;20013;-49
2024/04/11 14:40:22;;;;;;;6.75;4.43;;;;;;;;;;5344599;26;20007;-51
2024/04/11 14:42:53;;;;;;;5.55;4.15;;;;;;;;;;5344429;26;20449;-51
2024/04/11 14:45:22;;;;;;;4.85;4.03;;;;;;;;;;5343135;26;20382;-49
2024/04/11 14:47:51;;;;;;;4.82;4.38;;;;;;;;;;5345043;26;20083;-49
2024/04/11 14:50:21;;;;;;;7.45;4.72;;;;;;;;;;5341050;26;20025;-50
2024/04/11 14:52:53;;;;;;;12.55;5.20;;;;;;;;;;5343384;26;20763;-49
2024/04/11 14:55:23;;;;;;;6.63;4.78;;;;;;;;;;5341894;26;20005;-50
2024/04/11 14:57:52;;;;;;;6.45;5.20;;;;;;;;;;5344618;26;20011;-49
2024/04/11 15:03:03;;;;;;;8.43;4.90;;;;;;;;;;5350881;26;19997;-50
2024/04/11 15:05:34;;;;;;;7.43;5.45;;;;;;;;;;5344042;26;19993;-50
2024/04/11 15:08:03;;;;;;;5.40;4.75;;;;;;;;;;5350832;26;20337;-49
2024/04/11 15:10:41;;;;;;;5.65;4.78;;;;;;;;;;5349985;26;19988;-49